createdAt,value
2018-03-23T00:00:57.312Z,4.50
2018-03-23T00:02:58.256Z,4.40
2018-03-23T00:04:59.199Z,4.40
2018-03-23T00:07:00.198Z,4.40
2018-03-23T00:09:01.159Z,4.50
2018-03-23T00:11:02.169Z,4.50
2018-03-23T00:13:03.111Z,4.50
2018-03-23T00:15:04.893Z,4.40
2018-03-23T00:17:06.038Z,4.40
2018-03-23T00:19:07.061Z,4.40
2018-03-23T00:21:08.805Z,4.40
2018-03-23T00:23:09.830Z,4.40
2018-03-23T00:25:10.859Z,4.40
2018-03-23T00:27:12.049Z,4.40
2018-03-23T00:29:13.855Z,4.40
2018-03-23T00:31:15.084Z,4.40
2018-03-23T00:33:16.937Z,4.40
2018-03-23T00:35:17.965Z,4.30
2018-03-23T00:37:19.007Z,4.40
2018-03-23T00:39:20.031Z,4.40
2018-03-23T00:41:21.130Z,4.40
2018-03-23T00:43:22.088Z,4.40
2018-03-23T00:45:23.049Z,4.40
2018-03-23T00:47:24.943Z,4.30
2018-03-23T00:49:25.916Z,4.30
2018-03-23T00:51:26.961Z,4.40
2018-03-23T00:53:28.169Z,4.40
2018-03-23T00:55:29.239Z,4.40
2018-03-23T00:57:33.000Z,4.40
2018-03-23T00:59:34.197Z,4.40
2018-03-23T01:01:35.145Z,4.40
2018-03-23T01:03:36.161Z,4.40
2018-03-23T01:05:37.888Z,4.30
2018-03-23T01:07:38.902Z,4.30
2018-03-23T01:09:40.077Z,4.30
2018-03-23T01:11:41.153Z,4.30
2018-03-23T01:13:42.834Z,4.30
2018-03-23T01:15:44.626Z,4.30
2018-03-23T01:17:45.654Z,4.30
2018-03-23T01:19:47.432Z,4.30
2018-03-23T01:21:48.466Z,4.30
2018-03-23T01:23:49.438Z,4.30
2018-03-23T01:25:50.501Z,4.40
2018-03-23T01:27:51.508Z,4.30
2018-03-23T01:29:53.231Z,4.30
2018-03-23T01:31:54.211Z,4.30
2018-03-23T01:33:55.932Z,4.30
2018-03-23T01:35:56.920Z,4.30
2018-03-23T01:37:58.704Z,4.20
2018-03-23T01:39:59.710Z,4.20
2018-03-23T01:42:00.667Z,4.20
2018-03-23T01:44:02.396Z,4.20
2018-03-23T01:46:03.349Z,4.20
2018-03-23T01:48:04.493Z,4.10
2018-03-23T01:50:05.505Z,4.10
2018-03-23T01:52:06.562Z,4.10
2018-03-23T01:54:07.581Z,4.20
2018-03-23T01:56:08.693Z,4.10
2018-03-23T01:58:10.493Z,4.10
2018-03-23T02:00:12.252Z,4.10
2018-03-23T02:02:13.989Z,4.00
2018-03-23T02:04:15.013Z,4.00
2018-03-23T02:06:15.995Z,4.00
2018-03-23T02:08:17.238Z,4.00
2018-03-23T02:10:18.295Z,4.00
2018-03-23T02:12:19.333Z,4.00
2018-03-23T02:14:20.382Z,4.00
2018-03-23T02:16:21.402Z,4.00
2018-03-23T02:18:22.430Z,4.00
2018-03-23T02:20:23.473Z,4.00
2018-03-23T02:22:24.491Z,4.00
2018-03-23T02:24:25.632Z,4.00
2018-03-23T02:26:26.699Z,4.00
2018-03-23T02:28:28.436Z,4.00
2018-03-23T02:30:29.550Z,4.00
2018-03-23T02:32:30.625Z,4.00
2018-03-23T02:34:31.633Z,4.00
2018-03-23T02:36:32.614Z,4.00
2018-03-23T02:38:33.659Z,4.00
2018-03-23T02:40:34.632Z,4.00
2018-03-23T02:42:35.653Z,4.00
2018-03-23T02:44:36.640Z,4.00
2018-03-23T02:46:38.361Z,4.00
2018-03-23T02:48:39.348Z,4.00
2018-03-23T02:50:41.078Z,4.00
2018-03-23T02:52:42.085Z,4.00
2018-03-23T02:54:43.167Z,4.00
2018-03-23T02:56:44.978Z,4.00
2018-03-23T02:58:46.131Z,4.00
2018-03-23T03:00:47.113Z,4.00
2018-03-23T03:02:48.089Z,4.00
2018-03-23T03:04:49.038Z,4.00
2018-03-23T03:06:50.122Z,3.90
2018-03-23T03:08:51.093Z,3.90
2018-03-23T03:10:52.056Z,3.90
2018-03-23T03:12:53.084Z,4.00
2018-03-23T03:14:54.066Z,3.90
2018-03-23T03:16:55.120Z,4.00
2018-03-23T03:18:56.089Z,4.00
2018-03-23T03:20:57.797Z,3.90
2018-03-23T03:22:58.756Z,3.90
2018-03-23T03:24:59.820Z,3.90
2018-03-23T03:27:00.887Z,3.90
2018-03-23T03:29:02.681Z,3.90
2018-03-23T03:31:03.642Z,3.90
2018-03-23T03:33:04.613Z,3.90
2018-03-23T03:35:05.588Z,3.90
2018-03-23T03:37:06.572Z,3.90
2018-03-23T03:39:07.546Z,3.80
2018-03-23T03:41:08.606Z,3.90
2018-03-23T03:43:09.632Z,3.80
2018-03-23T03:45:10.684Z,3.80
2018-03-23T03:47:11.700Z,3.80
2018-03-23T03:49:13.412Z,3.70
2018-03-23T03:51:14.440Z,3.70
2018-03-23T03:53:15.436Z,3.70
2018-03-23T03:55:16.404Z,3.70
2018-03-23T03:57:17.401Z,3.70
2018-03-23T03:59:18.420Z,3.70
2018-03-23T04:01:19.361Z,3.70
2018-03-23T04:03:20.340Z,3.70
2018-03-23T04:05:21.310Z,3.70
2018-03-23T04:07:22.292Z,3.70
2018-03-23T04:09:23.300Z,3.70
2018-03-23T04:11:24.240Z,3.70
2018-03-23T04:13:25.232Z,3.70
2018-03-23T04:15:26.221Z,3.60
2018-03-23T04:17:27.175Z,3.60
2018-03-23T04:19:28.131Z,3.60
2018-03-23T04:21:29.127Z,3.60
2018-03-23T04:23:30.189Z,3.60
2018-03-23T04:25:31.208Z,3.60
2018-03-23T04:27:32.177Z,3.60
2018-03-23T04:29:33.152Z,3.50
2018-03-23T04:31:34.132Z,3.50
2018-03-23T04:33:35.092Z,3.50
2018-03-23T04:35:36.048Z,3.50
2018-03-23T04:37:37.000Z,3.60
2018-03-23T04:39:37.979Z,3.50
2018-03-23T04:41:38.946Z,3.50
2018-03-23T04:43:39.887Z,3.50
2018-03-23T04:45:40.849Z,3.50
2018-03-23T04:47:42.540Z,3.50
2018-03-23T04:49:43.485Z,3.50
2018-03-23T04:51:44.484Z,3.50
2018-03-23T04:53:46.232Z,3.60
2018-03-23T04:55:47.209Z,3.60
2018-03-23T04:57:48.896Z,3.50
2018-03-23T04:59:49.903Z,3.50
2018-03-23T05:01:51.683Z,3.50
2018-03-23T05:03:53.491Z,3.50
2018-03-23T05:05:54.456Z,3.50
2018-03-23T05:07:55.461Z,3.50
2018-03-23T05:09:56.435Z,3.50
2018-03-23T05:11:57.396Z,3.40
2018-03-23T05:13:58.375Z,3.50
2018-03-23T05:15:59.356Z,3.50
2018-03-23T05:18:00.328Z,3.50
2018-03-23T05:20:01.288Z,3.50
2018-03-23T05:22:02.254Z,3.50
2018-03-23T05:24:03.208Z,3.60
2018-03-23T05:26:04.912Z,3.50
2018-03-23T05:28:05.941Z,3.50
2018-03-23T05:30:06.972Z,3.60
2018-03-23T05:32:07.941Z,3.50
2018-03-23T05:34:08.941Z,3.50
2018-03-23T05:36:10.740Z,3.50
2018-03-23T05:38:11.707Z,3.50
2018-03-23T05:40:12.657Z,3.60
2018-03-23T05:42:13.716Z,3.60
2018-03-23T05:44:14.684Z,3.60
2018-03-23T05:46:15.655Z,3.70
2018-03-23T05:48:16.623Z,3.70
2018-03-23T05:50:17.597Z,3.70
2018-03-23T05:52:18.647Z,3.70
2018-03-23T05:54:19.893Z,3.80
2018-03-23T05:56:21.688Z,3.80
2018-03-23T05:58:22.677Z,3.80
2018-03-23T06:00:24.360Z,3.80
2018-03-23T06:02:27.732Z,3.80
2018-03-23T06:04:28.751Z,3.80
2018-03-23T06:06:29.790Z,3.90
2018-03-23T06:08:30.784Z,3.90
2018-03-23T06:10:31.784Z,3.90
2018-03-23T06:12:33.140Z,3.90
2018-03-23T06:14:34.415Z,3.90
2018-03-23T06:16:35.402Z,3.90
2018-03-23T06:18:36.628Z,3.90
2018-03-23T06:20:38.036Z,3.90
2018-03-23T06:22:39.125Z,3.90
2018-03-23T06:24:40.064Z,3.90
2018-03-23T06:26:41.061Z,3.90
2018-03-23T06:28:42.047Z,4.00
2018-03-23T06:30:43.050Z,4.00
2018-03-23T06:32:44.084Z,4.00
2018-03-23T06:34:45.049Z,4.10
2018-03-23T06:36:45.981Z,4.10
2018-03-23T06:38:46.935Z,4.10
2018-03-23T06:40:48.242Z,4.10
2018-03-23T06:42:49.236Z,4.10
2018-03-23T06:44:50.239Z,4.10
2018-03-23T06:46:52.356Z,4.20
2018-03-23T06:48:53.556Z,4.20
2018-03-23T06:50:55.247Z,4.20
2018-03-23T06:52:56.251Z,4.20
2018-03-23T06:54:57.245Z,4.20
2018-03-23T06:56:58.208Z,4.30
2018-03-23T06:58:59.494Z,4.20
2018-03-23T07:01:00.482Z,4.20
2018-03-23T07:03:02.187Z,4.30
2018-03-23T07:05:03.130Z,4.30
2018-03-23T07:07:04.068Z,4.30
2018-03-23T07:09:05.033Z,4.40
2018-03-23T07:11:06.004Z,4.40
2018-03-23T07:13:06.944Z,4.40
2018-03-23T07:15:07.953Z,4.50
2018-03-23T07:17:08.993Z,4.50
2018-03-23T07:19:10.256Z,4.50
2018-03-23T07:21:11.284Z,4.50
2018-03-23T07:23:12.293Z,4.50
2018-03-23T07:25:13.291Z,4.60
2018-03-23T07:27:14.253Z,4.60
2018-03-23T07:29:15.223Z,4.70
2018-03-23T07:31:16.193Z,4.80
2018-03-23T07:33:18.052Z,4.80
2018-03-23T07:35:19.036Z,4.80
2018-03-23T07:37:19.976Z,4.90
2018-03-23T07:39:20.945Z,5.00
2018-03-23T07:41:22.080Z,5.00
2018-03-23T07:43:23.052Z,5.00
2018-03-23T07:45:24.004Z,5.00
2018-03-23T07:47:24.935Z,5.00
2018-03-23T07:49:25.918Z,5.10
2018-03-23T07:51:27.789Z,5.10
2018-03-23T07:53:29.487Z,5.20
2018-03-23T07:55:30.429Z,5.20
2018-03-23T07:57:31.355Z,5.20
2018-03-23T07:59:33.058Z,5.30
2018-03-23T08:01:34.011Z,5.20
2018-03-23T08:03:34.979Z,5.30
2018-03-23T08:05:35.899Z,5.40
2018-03-23T08:07:36.852Z,5.40
2018-03-23T08:09:38.788Z,5.40
2018-03-23T08:11:39.804Z,5.40
2018-03-23T08:13:41.583Z,5.40
2018-03-23T08:15:42.814Z,5.40
2018-03-23T08:17:44.543Z,5.40
2018-03-23T08:19:45.487Z,5.40
2018-03-23T08:21:46.487Z,5.50
2018-03-23T08:23:47.718Z,5.60
2018-03-23T08:25:49.428Z,5.60
2018-03-23T08:27:50.534Z,5.60
2018-03-23T08:29:51.545Z,5.70
2018-03-23T08:31:52.515Z,5.60
2018-03-23T08:33:53.464Z,5.70
2018-03-23T08:35:54.436Z,5.60
2018-03-23T08:37:55.383Z,5.70
2018-03-23T08:39:57.212Z,5.80
2018-03-23T08:41:59.001Z,5.70
2018-03-23T08:44:00.034Z,5.70
2018-03-23T08:46:00.917Z,5.70
2018-03-23T08:48:02.087Z,5.70
2018-03-23T08:50:03.056Z,5.70
2018-03-23T08:52:04.156Z,5.70
2018-03-23T08:54:05.254Z,5.70
2018-03-23T08:56:06.237Z,5.60
2018-03-23T08:58:07.192Z,5.70
2018-03-23T09:00:08.879Z,5.70
2018-03-23T09:02:09.860Z,5.70
2018-03-23T09:04:11.603Z,5.70
2018-03-23T09:06:12.555Z,5.70
2018-03-23T09:08:13.909Z,5.70
2018-03-23T09:10:14.919Z,5.70
2018-03-23T09:12:15.876Z,5.70
2018-03-23T09:14:16.835Z,5.60
2018-03-23T09:16:17.787Z,5.70
2018-03-23T09:18:19.478Z,5.60
2018-03-23T09:20:20.476Z,5.60
2018-03-23T09:22:21.457Z,5.60
2018-03-23T09:24:22.452Z,5.70
2018-03-23T09:26:23.407Z,5.70
2018-03-23T09:28:24.357Z,5.70
2018-03-23T09:30:25.460Z,5.80
2018-03-23T09:32:27.163Z,5.80
2018-03-23T09:34:28.156Z,5.80
2018-03-23T09:36:29.095Z,5.80
2018-03-23T09:38:30.046Z,5.90
2018-03-23T09:40:30.999Z,5.90
2018-03-23T09:42:31.943Z,6.00
2018-03-23T09:44:32.932Z,5.90
2018-03-23T09:46:34.623Z,5.90
2018-03-23T09:48:35.577Z,5.90
2018-03-23T09:50:36.632Z,5.90
2018-03-23T09:52:37.727Z,6.00
2018-03-23T09:54:38.684Z,5.90
2018-03-23T09:56:41.798Z,6.00
2018-03-23T09:58:42.799Z,5.90
2018-03-23T10:00:43.768Z,6.00
2018-03-23T10:02:45.471Z,6.00
2018-03-23T10:04:46.431Z,6.00
2018-03-23T10:06:47.417Z,6.10
2018-03-23T10:08:49.121Z,6.20
2018-03-23T10:10:50.075Z,6.20
2018-03-23T10:12:51.021Z,6.20
2018-03-23T10:14:52.100Z,6.20
2018-03-23T10:16:53.043Z,6.20
2018-03-23T10:18:53.980Z,6.20
2018-03-23T10:20:54.925Z,6.20
2018-03-23T10:22:55.883Z,6.10
2018-03-23T10:24:56.850Z,6.10
2018-03-23T10:26:58.545Z,6.20
2018-03-23T10:28:59.553Z,6.10
2018-03-23T10:31:00.462Z,6.20
2018-03-23T10:33:02.537Z,6.20
2018-03-23T10:35:03.530Z,6.30
2018-03-23T10:37:04.468Z,6.30
2018-03-23T10:39:05.416Z,6.40
2018-03-23T10:41:07.177Z,6.40
2018-03-23T10:43:08.875Z,6.50
2018-03-23T10:45:09.860Z,6.50
2018-03-23T10:47:10.804Z,6.60
2018-03-23T10:49:11.861Z,6.70
2018-03-23T10:51:12.826Z,6.80
2018-03-23T10:53:14.511Z,6.90
2018-03-23T10:55:15.485Z,6.80
2018-03-23T10:57:16.436Z,7.00
2018-03-23T10:59:17.384Z,7.00
2018-03-23T11:01:24.498Z,7.10
2018-03-23T11:03:25.444Z,7.20
2018-03-23T11:05:26.409Z,7.20
2018-03-23T11:07:28.344Z,7.40
2018-03-23T11:09:29.328Z,7.40
2018-03-23T11:11:31.007Z,7.50
2018-03-23T11:13:31.952Z,7.50
2018-03-23T11:15:32.883Z,7.50
2018-03-23T11:17:34.564Z,7.50
2018-03-23T11:19:35.517Z,7.50
2018-03-23T11:21:36.452Z,7.60
2018-03-23T11:23:39.452Z,7.60
2018-03-23T11:25:40.800Z,7.60
2018-03-23T11:27:42.774Z,7.70
2018-03-23T11:29:44.601Z,7.70
2018-03-23T11:31:45.628Z,7.70
2018-03-23T11:33:46.576Z,7.80
2018-03-23T11:35:48.818Z,7.70
2018-03-23T11:37:49.811Z,7.90
2018-03-23T11:39:50.756Z,8.00
2018-03-23T11:41:51.906Z,7.90
2018-03-23T11:43:53.176Z,7.90
2018-03-23T11:45:54.873Z,8.00
2018-03-23T11:47:55.820Z,8.00
2018-03-23T11:49:56.786Z,8.00
2018-03-23T11:51:58.036Z,8.00
2018-03-23T11:53:59.007Z,7.90
2018-03-23T11:55:59.952Z,7.90
2018-03-23T11:58:02.049Z,7.90
2018-03-23T12:00:03.032Z,7.90
2018-03-23T12:02:04.975Z,8.00
2018-03-23T12:04:05.948Z,8.00
2018-03-23T12:06:06.951Z,7.90
2018-03-23T12:08:08.702Z,7.90
2018-03-23T12:10:09.647Z,7.90
2018-03-23T12:12:10.861Z,7.90
2018-03-23T12:14:11.837Z,8.00
2018-03-23T12:16:12.819Z,8.00
2018-03-23T12:18:14.496Z,8.00
2018-03-23T12:20:15.444Z,8.00
2018-03-23T12:22:17.600Z,7.90
2018-03-23T12:24:18.620Z,7.90
2018-03-23T12:26:19.606Z,7.80
2018-03-23T12:28:21.643Z,7.80
2018-03-23T12:30:23.379Z,7.70
2018-03-23T12:32:24.347Z,7.70
2018-03-23T12:34:25.376Z,7.70
2018-03-23T12:36:26.600Z,7.80
2018-03-23T12:38:28.308Z,7.80
2018-03-23T12:40:29.855Z,7.80
2018-03-23T12:42:31.631Z,7.80
2018-03-23T12:44:32.563Z,7.80
2018-03-23T12:46:34.063Z,7.90
2018-03-23T12:48:35.086Z,7.90
2018-03-23T12:50:37.152Z,8.00
2018-03-23T12:52:38.899Z,8.00
2018-03-23T12:54:40.639Z,8.00
2018-03-23T12:56:42.406Z,7.90
2018-03-23T12:58:48.340Z,7.90
2018-03-23T13:00:50.984Z,7.90
2018-03-23T13:02:54.504Z,7.90
2018-03-23T13:04:57.036Z,7.90
2018-03-23T13:06:58.092Z,7.90
2018-03-23T13:08:59.045Z,7.90
2018-03-23T13:11:00.678Z,7.90
2018-03-23T13:13:02.359Z,7.90
2018-03-23T13:15:03.911Z,7.90
2018-03-23T13:17:08.677Z,7.90
2018-03-23T13:19:09.715Z,7.90
2018-03-23T13:21:10.751Z,7.80
2018-03-23T13:23:11.775Z,7.80
2018-03-23T13:25:24.121Z,7.80
2018-03-23T13:27:25.783Z,7.90
2018-03-23T13:29:26.724Z,7.90
2018-03-23T13:31:27.715Z,8.00
2018-03-23T13:33:29.419Z,8.20
2018-03-23T13:35:30.525Z,8.10
2018-03-23T13:37:32.863Z,8.20
2018-03-23T13:39:33.791Z,8.20
2018-03-23T13:41:34.763Z,8.30
2018-03-23T13:43:41.054Z,8.40
2018-03-23T13:45:43.039Z,8.40
2018-03-23T13:47:44.019Z,8.40
2018-03-23T13:49:44.985Z,8.40
2018-03-23T13:51:45.933Z,8.40
2018-03-23T13:53:46.934Z,8.50
2018-03-23T13:55:49.213Z,8.60
2018-03-23T13:57:50.956Z,8.60
2018-03-23T13:59:57.964Z,8.50
2018-03-23T14:01:59.080Z,8.60
2018-03-23T14:04:00.085Z,8.60
2018-03-23T14:06:01.060Z,8.70
2018-03-23T14:08:02.034Z,8.70
2018-03-23T14:10:18.767Z,8.70
2018-03-23T14:12:26.720Z,8.60
2018-03-23T14:14:27.719Z,8.60
2018-03-23T14:16:40.397Z,8.50
2018-03-23T14:18:41.609Z,8.50
2018-03-23T14:20:46.764Z,8.40
2018-03-23T14:22:55.483Z,8.40
2018-03-23T14:25:01.429Z,8.30
2018-03-23T14:32:00.837Z,8.20
2018-03-23T14:34:01.941Z,8.20
2018-03-23T14:38:26.942Z,8.10
2018-03-23T14:40:27.925Z,8.20
2018-03-23T14:42:29.933Z,8.20
2018-03-23T14:44:30.905Z,8.10
2018-03-23T14:46:34.780Z,8.10
2018-03-23T14:48:35.958Z,8.20
2018-03-23T14:50:38.676Z,8.20
2018-03-23T14:52:39.825Z,8.20
2018-03-23T14:54:42.421Z,8.20
2018-03-23T14:56:43.425Z,8.20
2018-03-23T14:58:50.497Z,8.20
2018-03-23T15:01:04.315Z,8.20
2018-03-23T15:03:05.509Z,8.20
2018-03-23T15:05:06.481Z,8.20
2018-03-23T15:07:07.485Z,8.20
2018-03-23T15:09:08.460Z,8.20
2018-03-23T15:11:13.300Z,8.30
2018-03-23T15:13:14.313Z,8.30
2018-03-23T15:15:15.362Z,8.30
2018-03-23T15:17:16.371Z,8.40
2018-03-23T15:19:19.114Z,8.40
2018-03-23T15:21:20.158Z,8.30
2018-03-23T15:23:21.150Z,8.40
2018-03-23T15:25:22.125Z,8.40
2018-03-23T15:27:23.849Z,8.40
2018-03-23T15:29:24.847Z,8.40
2018-03-23T15:31:25.849Z,8.40
2018-03-23T15:33:26.809Z,8.30
2018-03-23T15:35:27.825Z,8.30
2018-03-23T15:37:28.838Z,8.30
2018-03-23T15:39:29.855Z,8.30
2018-03-23T15:41:31.565Z,8.20
2018-03-23T15:43:32.582Z,8.20
2018-03-23T15:45:42.854Z,8.20
2018-03-23T15:47:43.847Z,8.20
2018-03-23T15:49:44.901Z,8.20
2018-03-23T15:51:46.652Z,8.10
2018-03-23T15:53:47.617Z,8.10
2018-03-23T15:55:48.594Z,8.10
2018-03-23T15:57:50.302Z,8.10
2018-03-23T15:59:51.278Z,8.10
2018-03-23T16:01:52.324Z,8.10
2018-03-23T16:03:57.452Z,8.10
2018-03-23T16:05:58.530Z,8.10
2018-03-23T16:08:04.513Z,8.10
2018-03-23T16:10:05.651Z,8.10
2018-03-23T16:12:06.648Z,8.10
2018-03-23T16:14:07.615Z,8.10
2018-03-23T16:16:08.604Z,8.00
2018-03-23T16:18:09.589Z,8.00
2018-03-23T16:20:10.549Z,8.00
2018-03-23T16:22:11.546Z,8.00
2018-03-23T16:24:12.555Z,8.00
2018-03-23T16:26:13.544Z,8.00
2018-03-23T16:28:14.552Z,8.00
2018-03-23T16:30:17.461Z,8.00
2018-03-23T16:32:18.557Z,8.00
2018-03-23T16:34:19.538Z,8.00
2018-03-23T16:36:20.528Z,8.10
2018-03-23T16:38:21.524Z,8.10
2018-03-23T16:40:25.748Z,8.10
2018-03-23T16:42:26.825Z,8.10
2018-03-23T16:44:29.488Z,8.00
2018-03-23T16:46:30.553Z,8.00
2018-03-23T16:48:32.233Z,8.00
2018-03-23T16:50:33.940Z,8.00
2018-03-23T16:52:34.930Z,8.00
2018-03-23T16:54:35.900Z,8.00
2018-03-23T16:56:36.872Z,7.90
2018-03-23T16:58:37.870Z,7.90
2018-03-23T17:00:39.706Z,7.90
2018-03-23T17:02:40.721Z,7.90
2018-03-23T17:04:41.728Z,7.80
2018-03-23T17:06:43.480Z,7.80
2018-03-23T17:08:44.459Z,7.80
2018-03-23T17:10:45.420Z,7.80
2018-03-23T17:12:46.552Z,7.80
2018-03-23T17:14:47.566Z,7.70
2018-03-23T17:16:48.588Z,7.70
2018-03-23T17:18:49.572Z,7.70
2018-03-23T17:20:51.308Z,7.70
2018-03-23T17:22:52.263Z,7.70
2018-03-23T17:24:53.992Z,7.60
2018-03-23T17:26:54.992Z,7.60
2018-03-23T17:28:56.027Z,7.60
2018-03-23T17:30:57.000Z,7.60
2018-03-23T17:32:57.948Z,7.50
2018-03-23T17:34:59.045Z,7.50
2018-03-23T17:37:00.095Z,7.50
2018-03-23T17:39:01.072Z,7.50
2018-03-23T17:41:02.016Z,7.50
2018-03-23T17:43:02.985Z,7.40
2018-03-23T17:45:03.948Z,7.40
2018-03-23T17:47:05.014Z,7.40
2018-03-23T17:49:05.959Z,7.40
2018-03-23T17:51:07.067Z,7.30
2018-03-23T17:53:08.058Z,7.40
2018-03-23T17:55:09.089Z,7.30
2018-03-23T17:57:10.041Z,7.30
2018-03-23T17:59:11.076Z,7.30
2018-03-23T18:01:15.340Z,7.30
2018-03-23T18:03:24.724Z,7.30
2018-03-23T18:05:26.498Z,7.30
2018-03-23T18:07:29.830Z,7.30
2018-03-23T18:09:30.981Z,7.30
2018-03-23T18:11:32.029Z,7.30
2018-03-23T18:13:35.729Z,7.30
2018-03-23T18:15:45.402Z,7.30
2018-03-23T18:17:46.413Z,7.30
2018-03-23T18:19:47.381Z,7.30
2018-03-23T18:21:48.345Z,7.30
2018-03-23T18:23:49.300Z,7.30
2018-03-23T18:25:50.264Z,7.30
2018-03-23T18:27:51.287Z,7.30
2018-03-23T18:29:52.287Z,7.30
2018-03-23T18:31:55.182Z,7.30
2018-03-23T18:33:56.257Z,7.30
2018-03-23T18:35:57.446Z,7.20
2018-03-23T18:37:58.392Z,7.30
2018-03-23T18:39:59.367Z,7.20
2018-03-23T18:42:00.380Z,7.20
2018-03-23T18:44:01.362Z,7.20
2018-03-23T18:46:02.324Z,7.20
2018-03-23T18:48:03.307Z,7.20
2018-03-23T18:50:04.556Z,7.20
2018-03-23T18:52:05.661Z,7.20
2018-03-23T18:54:06.660Z,7.10
2018-03-23T18:56:09.232Z,7.10
2018-03-23T18:58:10.579Z,7.10
2018-03-23T19:00:11.844Z,7.10
2018-03-23T19:02:12.867Z,7.10
2018-03-23T19:04:13.809Z,7.10
2018-03-23T19:06:14.792Z,7.10
2018-03-23T19:08:15.804Z,7.10
2018-03-23T19:10:16.934Z,7.10
2018-03-23T19:12:17.975Z,7.10
2018-03-23T19:14:19.008Z,7.10
2018-03-23T19:16:19.970Z,7.10
2018-03-23T19:18:21.206Z,7.10
2018-03-23T19:20:22.173Z,7.10
2018-03-23T19:22:23.637Z,7.10
2018-03-23T19:24:24.668Z,7.10
2018-03-23T19:26:25.653Z,7.10
2018-03-23T19:28:26.621Z,7.10
2018-03-23T19:30:27.578Z,7.10
2018-03-23T19:32:28.544Z,7.10
2018-03-23T19:34:31.539Z,7.10
2018-03-23T19:36:33.647Z,7.00
2018-03-23T19:38:34.660Z,7.10
2018-03-23T19:40:35.599Z,7.00
2018-03-23T19:42:37.420Z,7.10
2018-03-23T19:44:38.589Z,7.00
2018-03-23T19:46:40.353Z,7.10
2018-03-23T19:48:41.891Z,7.00
2018-03-23T19:50:42.947Z,7.10
2018-03-23T19:52:43.919Z,7.10
2018-03-23T19:54:44.959Z,7.00
2018-03-23T19:56:45.892Z,7.10
2018-03-23T19:58:47.267Z,7.10
2018-03-23T20:00:48.475Z,7.10
2018-03-23T20:02:49.530Z,7.10
2018-03-23T20:04:51.824Z,7.10
2018-03-23T20:06:53.130Z,7.10
2018-03-23T20:08:54.449Z,7.10
2018-03-23T20:11:12.725Z,7.00
2018-03-23T20:13:13.926Z,7.00
2018-03-23T20:15:15.166Z,7.00
2018-03-23T20:30:31.533Z,6.90
2018-03-23T20:32:32.508Z,6.90
2018-03-23T20:34:33.496Z,6.90
2018-03-23T20:36:34.447Z,6.90
2018-03-23T20:38:35.950Z,6.90
2018-03-23T20:40:38.552Z,6.90
2018-03-23T20:42:40.510Z,6.90
2018-03-23T20:44:41.472Z,6.90
2018-03-23T20:46:43.189Z,6.90
2018-03-23T20:48:44.205Z,6.90
2018-03-23T20:50:45.176Z,6.90
2018-03-23T20:52:46.137Z,6.90
2018-03-23T20:54:47.103Z,6.90
2018-03-23T20:56:48.158Z,6.90
2018-03-23T20:58:49.181Z,6.90
2018-03-23T21:00:50.516Z,6.90
2018-03-23T21:02:51.620Z,6.90
2018-03-23T21:04:52.805Z,6.90
2018-03-23T21:06:56.560Z,6.90
2018-03-23T21:08:57.624Z,6.90
2018-03-23T21:11:00.100Z,6.80
2018-03-23T21:13:02.795Z,6.80
2018-03-23T21:15:03.891Z,6.80
2018-03-23T21:17:05.722Z,6.80
2018-03-23T21:19:07.792Z,6.80
2018-03-23T21:21:12.038Z,6.80
2018-03-23T21:23:13.220Z,6.80
2018-03-23T21:25:14.232Z,6.80
2018-03-23T21:27:15.197Z,6.80
2018-03-23T21:29:16.216Z,6.80
2018-03-23T21:31:17.223Z,6.80
2018-03-23T21:33:18.226Z,6.80
2018-03-23T21:35:23.707Z,6.80
2018-03-23T21:37:24.729Z,6.80
2018-03-23T21:39:25.696Z,6.80
2018-03-23T21:41:27.026Z,6.80
2018-03-23T21:43:28.598Z,6.80
2018-03-23T21:45:29.675Z,6.80
2018-03-23T21:47:31.994Z,6.80
2018-03-23T21:49:33.067Z,6.80
2018-03-23T21:51:34.061Z,6.80
2018-03-23T21:53:35.032Z,6.80
2018-03-23T21:55:36.013Z,6.80
2018-03-23T21:57:38.432Z,6.80
2018-03-23T21:59:39.486Z,6.80
2018-03-23T22:01:41.205Z,6.80
2018-03-23T22:03:42.201Z,6.70
2018-03-23T22:05:45.235Z,6.70
2018-03-23T22:07:46.289Z,6.70
2018-03-23T22:09:47.984Z,6.70
2018-03-23T22:11:49.389Z,6.70
2018-03-23T22:13:50.443Z,6.70
2018-03-23T22:15:51.389Z,6.70
2018-03-23T22:17:53.528Z,6.70
2018-03-23T22:19:55.305Z,6.70
2018-03-23T22:21:56.275Z,6.70
2018-03-23T22:23:57.566Z,6.70
2018-03-23T22:25:58.945Z,6.70
2018-03-23T22:28:00.018Z,6.70
2018-03-23T22:30:01.487Z,6.70
2018-03-23T22:32:03.837Z,6.70
2018-03-23T22:34:04.867Z,6.60
2018-03-23T22:36:05.849Z,6.60
2018-03-23T22:38:06.840Z,6.60
2018-03-23T22:40:08.973Z,6.60
2018-03-23T22:42:09.984Z,6.60
2018-03-23T22:44:12.041Z,6.50
2018-03-23T22:46:13.231Z,6.50
2018-03-23T22:48:14.180Z,6.50
2018-03-23T22:50:15.193Z,6.50
2018-03-23T22:52:16.160Z,6.50
2018-03-23T22:54:17.864Z,6.50
2018-03-23T22:56:18.837Z,6.50
2018-03-23T22:58:34.629Z,6.50
2018-03-23T23:00:41.149Z,6.50
2018-03-23T23:02:42.170Z,6.50
2018-03-23T23:04:43.515Z,6.50
2018-03-23T23:06:45.288Z,6.50
2018-03-23T23:08:46.288Z,6.50
2018-03-23T23:10:47.298Z,6.60
2018-03-23T23:12:50.625Z,6.60
2018-03-23T23:14:52.753Z,6.60
2018-03-23T23:16:56.306Z,6.60
2018-03-23T23:18:57.387Z,6.60
2018-03-23T23:20:58.394Z,6.60
2018-03-23T23:23:00.144Z,6.60
2018-03-23T23:25:02.733Z,6.60
2018-03-23T23:27:10.474Z,6.50
2018-03-23T23:29:11.485Z,6.60
2018-03-23T23:31:13.241Z,6.60
2018-03-23T23:33:14.229Z,6.50
2018-03-23T23:35:16.636Z,6.50
2018-03-23T23:37:17.709Z,6.50
2018-03-23T23:39:18.684Z,6.50
2018-03-23T23:41:19.688Z,6.40
2018-03-23T23:43:20.738Z,6.40
2018-03-23T23:45:22.393Z,6.40
2018-03-23T23:47:23.433Z,6.40
2018-03-23T23:49:24.435Z,6.40
2018-03-23T23:51:25.385Z,6.40
2018-03-23T23:53:27.865Z,6.40
2018-03-23T23:55:28.899Z,6.40
2018-03-23T23:57:30.644Z,6.30
2018-03-23T23:59:32.400Z,6.30
